Time;durP1;ratioP1;P1;durP2;ratioP2;P2;SDS_P1;SDS_P2;PMS_P1;PMS_P2;Temp;Humidity;BMP_temperature;BMP_pressure;BME280_temperature;BME280_humidity;BME280_pressure;Samples;Min_cycle;Max_cycle;Signal;HPM_P1;HPM_P2
2022/12/16 00:00:05;;;;;;;8.18;4.93;;;;;;;1.91;100.00;97043.06;4967345;28;20876;-61
2022/12/16 00:02:31;;;;;;;7.57;4.78;;;;;;;1.89;100.00;97027.00;4965320;28;20042;-62
2022/12/16 00:04:56;;;;;;;6.90;4.28;;;;;;;1.78;100.00;97016.03;4990199;28;20036;-61
2022/12/16 00:07:22;;;;;;;9.05;5.35;;;;;;;1.92;100.00;97026.75;4998226;28;20049;-60
2022/12/16 00:09:48;;;;;;;7.05;4.57;;;;;;;1.95;100.00;97022.31;5000389;28;20548;-62
2022/12/16 00:12:13;;;;;;;8.13;4.78;;;;;;;1.96;100.00;97021.38;5002606;28;20030;-61
2022/12/16 00:14:39;;;;;;;8.65;5.28;;;;;;;1.97;100.00;97018.69;5000004;28;20100;-61
2022/12/16 00:17:04;;;;;;;8.05;5.28;;;;;;;1.97;100.00;97013.56;4981862;28;20038;-62
2022/12/16 00:19:30;;;;;;;8.27;5.43;;;;;;;1.98;100.00;97001.53;4981855;28;20030;-64
2022/12/16 00:21:56;;;;;;;8.50;5.32;;;;;;;2.00;100.00;97012.47;4964993;28;20046;-61
2022/12/16 00:24:21;;;;;;;9.20;5.55;;;;;;;1.88;100.00;96991.25;4993977;28;20034;-60
2022/12/16 00:26:47;;;;;;;5.78;3.58;;;;;;;1.94;100.00;96997.63;4998028;28;20132;-62
2022/12/16 00:29:12;;;;;;;6.40;4.07;;;;;;;2.00;100.00;97004.78;4978282;28;20076;-63
2022/12/16 00:31:38;;;;;;;7.30;4.72;;;;;;;2.02;100.00;97013.16;4980908;28;20065;-64
2022/12/16 00:34:03;;;;;;;5.00;2.78;;;;;;;2.04;100.00;97001.81;4984618;28;20225;-62
2022/12/16 00:36:29;;;;;;;7.38;4.82;;;;;;;2.01;100.00;96993.56;4997182;28;20478;-62
2022/12/16 00:38:54;;;;;;;7.68;4.72;;;;;;;2.00;100.00;96997.09;4981230;28;20027;-64
2022/12/16 00:41:20;;;;;;;7.15;5.00;;;;;;;2.01;100.00;97006.38;4978294;28;20038;-61
2022/12/16 00:43:46;;;;;;;8.13;5.10;;;;;;;2.00;100.00;96999.66;4978114;28;20030;-64
2022/12/16 00:46:11;;;;;;;7.68;5.30;;;;;;;2.08;100.00;97007.50;4981764;28;20511;-61
2022/12/16 00:48:37;;;;;;;8.05;5.72;;;;;;;2.05;100.00;96994.97;4984214;28;20030;-64
2022/12/16 00:51:02;;;;;;;7.00;4.65;;;;;;;2.11;100.00;97007.25;4982868;28;20073;-63
2022/12/16 00:53:28;;;;;;;8.02;5.05;;;;;;;2.09;100.00;96991.97;4999021;28;20084;-62
2022/12/16 00:56:04;;;;;;;7.45;4.93;;;;;;;2.13;100.00;96999.44;4980340;28;20101;-61
2022/12/16 00:58:29;;;;;;;8.63;4.97;;;;;;;2.11;100.00;97005.47;5000451;28;20034;-62
2022/12/16 01:00:55;;;;;;;7.35;4.55;;;;;;;2.07;100.00;96977.69;4978984;28;20049;-61
2022/12/16 01:03:20;;;;;;;7.63;4.95;;;;;;;1.87;100.00;96966.56;4999619;28;20125;-61
2022/12/16 01:05:46;;;;;;;9.85;5.88;;;;;;;2.12;100.00;97011.44;4987571;28;20568;-63
2022/12/16 01:08:11;;;;;;;7.93;5.22;;;;;;;2.08;100.00;97013.47;4997890;28;20117;-62
2022/12/16 01:10:37;;;;;;;9.02;5.72;;;;;;;2.16;100.00;97012.00;4989350;28;20041;-66
2022/12/16 01:13:02;;;;;;;8.15;5.32;;;;;;;2.15;100.00;97012.91;4981717;28;20038;-63
2022/12/16 01:15:27;;;;;;;8.98;5.00;;;;;;;2.15;100.00;97013.72;4959771;28;20030;-62
2022/12/16 01:17:53;;;;;;;8.18;5.32;;;;;;;1.97;100.00;96982.78;5000169;28;20026;-62
2022/12/16 01:20:18;;;;;;;9.77;6.40;;;;;;;2.20;100.00;97014.16;4981688;28;20145;-61
2022/12/16 01:22:44;;;;;;;6.80;4.38;;;;;;;2.24;100.00;97018.06;4999677;28;20069;-62
2022/12/16 01:25:11;;;;;;;7.38;4.82;;;;;;;2.00;100.00;96979.16;4997702;28;20042;-63
2022/12/16 01:27:37;;;;;;;7.60;5.10;;;;;;;2.26;100.00;97002.56;5009676;28;20037;-64
2022/12/16 01:30:03;;;;;;;7.32;5.05;;;;;;;2.34;100.00;97009.56;5001581;28;20486;-64
2022/12/16 01:32:29;;;;;;;5.68;3.42;;;;;;;2.42;100.00;97015.69;4984305;28;20037;-64
2022/12/16 01:34:54;;;;;;;7.32;4.82;;;;;;;2.32;100.00;96996.91;4995711;28;20492;-66
2022/12/16 01:37:20;;;;;;;7.13;4.93;;;;;;;2.32;100.00;97004.59;4991671;28;20022;-64
2022/12/16 01:39:46;;;;;;;5.68;3.30;;;;;;;2.44;100.00;97016.34;4999433;28;20474;-64
2022/12/16 01:42:13;;;;;;;6.68;4.05;;;;;;;2.44;100.00;97018.13;4981050;28;20787;-62
2022/12/16 01:44:42;;;;;;;6.00;3.80;;;;;;;2.38;100.00;97013.53;5000623;28;20030;-62
2022/12/16 01:47:15;;;;;;;7.00;4.60;;;;;;;2.42;100.00;97009.75;4997274;28;20515;-64
2022/12/16 01:49:50;;;;;;;7.10;3.70;;;;;;;2.25;100.00;96967.59;5012459;28;20813;-63
2022/12/16 01:52:28;;;;;;;6.55;3.85;;;;;;;2.54;100.00;97011.25;4995416;28;20397;-62
2022/12/16 01:55:06;;;;;;;6.03;4.05;;;;;;;2.52;100.00;97007.19;4997973;28;20037;-63
2022/12/16 01:57:39;;;;;;;8.23;4.35;;;;;;;2.57;100.00;97005.84;4982579;28;20039;-62
2022/12/16 02:00:05;;;;;;;8.00;4.10;;;;;;;2.59;100.00;97005.72;4982883;28;20567;-63
2022/12/16 02:02:31;;;;;;;9.02;5.50;;;;;;;2.50;100.00;96989.34;4996677;28;20034;-63
2022/12/16 02:07:41;;;;;;;6.50;4.22;;;;;;;2.60;100.00;96991.94;4982613;28;20057;-62
2022/12/16 02:10:07;;;;;;;7.22;4.70;;;;;;;2.62;100.00;96993.41;4997285;28;20462;-62
2022/12/16 02:12:43;;;;;;;6.90;4.20;;;;;;;2.60;100.00;96999.63;5001983;28;20088;-64
2022/12/16 02:15:52;;;;;;;7.88;4.47;;;;;;;2.60;100.00;97012.47;4996991;28;20041;-63
2022/12/16 02:18:40;;;;;;;8.02;5.10;;;;;;;2.57;100.00;97000.69;4965333;28;20084;-64
2022/12/16 02:21:37;;;;;;;7.60;4.82;;;;;;;2.31;100.00;96964.50;4995413;28;20034;-63
2022/12/16 02:24:28;;;;;;;9.25;4.85;;;;;;;2.55;100.00;97007.72;5011212;28;20054;-64
2022/12/16 02:27:02;;;;;;;6.88;4.65;;;;;;;2.58;100.00;97017.72;4983772;28;20026;-61
2022/12/16 02:29:54;;;;;;;7.65;4.78;;;;;;;2.49;100.00;97000.56;4979206;28;20029;-64
2022/12/16 02:32:26;;;;;;;6.53;4.20;;;;;;;2.50;100.00;97023.53;4975316;28;20030;-63
2022/12/16 02:35:17;;;;;;;6.78;4.07;;;;;;;2.39;100.00;96994.59;4989781;28;20027;-63
2022/12/16 02:37:48;;;;;;;9.40;4.75;;;;;;;2.49;100.00;97005.72;4994779;28;20145;-63
2022/12/16 02:40:27;;;;;;;7.07;4.18;;;;;;;2.41;100.00;96998.69;4978509;28;20034;-63
2022/12/16 02:42:59;;;;;;;7.43;4.97;;;;;;;2.50;100.00;97017.56;4976256;28;20075;-65
2022/12/16 02:45:27;;;;;;;8.18;5.13;;;;;;;2.36;100.00;96998.25;4980660;28;20397;-64
2022/12/16 02:47:53;;;;;;;7.75;4.65;;;;;;;2.54;100.00;97007.84;4973329;28;20125;-65
2022/12/16 02:50:25;;;;;;;7.47;4.90;;;;;;;2.47;100.00;97010.16;4998622;28;20542;-62
2022/12/16 02:52:53;;;;;;;7.97;5.10;;;;;;;2.42;100.00;97007.97;5010194;28;20034;-62
2022/12/16 02:55:19;;;;;;;8.05;5.40;;;;;;;2.45;100.00;97005.16;4981560;28;20045;-64
2022/12/16 02:57:58;;;;;;;8.02;5.03;;;;;;;2.49;100.00;97008.28;4979957;28;20038;-63
2022/12/16 03:00:24;;;;;;;7.70;5.53;;;;;;;2.48;100.00;97002.34;4981869;28;20116;-64
2022/12/16 03:02:56;;;;;;;7.28;5.15;;;;;;;2.42;100.00;96984.09;4980924;28;20149;-65
2022/12/16 03:05:35;;;;;;;8.45;5.38;;;;;;;2.25;100.00;96949.66;4984860;28;20085;-62
2022/12/16 03:08:05;;;;;;;7.63;4.57;;;;;;;2.61;100.00;96993.53;4976756;28;20030;-62
2022/12/16 03:10:37;;;;;;;8.68;5.32;;;;;;;2.60;100.00;96994.50;4981262;28;20037;-61
2022/12/16 03:13:04;;;;;;;8.45;5.53;;;;;;;2.50;100.00;96997.03;4965056;28;20038;-63
2022/12/16 03:15:31;;;;;;;8.38;5.45;;;;;;;2.45;100.00;96984.63;4998208;28;20057;-64
2022/12/16 03:17:58;;;;;;;7.88;5.32;;;;;;;2.52;100.00;96992.63;4995683;28;20038;-63
2022/12/16 03:20:33;;;;;;;9.32;5.45;;;;;;;2.55;100.00;97000.03;4978691;28;20117;-62
2022/12/16 03:23:02;;;;;;;8.60;5.78;;;;;;;2.55;100.00;97007.72;4983509;28;20117;-63
2022/12/16 03:25:29;;;;;;;8.53;6.10;;;;;;;2.60;100.00;97017.59;4992708;28;20038;-63
2022/12/16 03:28:59;;;;;;;9.35;5.90;;;;;;;2.59;100.00;97021.94;4997958;28;20073;-64
2022/12/16 03:31:27;;;;;;;7.45;5.22;;;;;;;2.59;100.00;97013.41;4946699;28;20141;-63
2022/12/16 03:34:13;;;;;;;8.05;5.57;;;;;;;2.61;100.00;97012.34;4977238;28;20065;-64
2022/12/16 03:36:40;;;;;;;9.23;6.28;;;;;;;2.52;100.00;96992.63;5017363;28;20061;-62
2022/12/16 03:39:07;;;;;;;7.95;4.90;;;;;;;2.60;100.00;97004.78;4999011;28;20585;-63
2022/12/16 03:41:33;;;;;;;8.00;5.25;;;;;;;2.58;100.00;97002.34;4968123;28;20072;-64
2022/12/16 03:43:59;;;;;;;8.43;5.47;;;;;;;2.61;100.00;97011.50;4987248;28;20038;-62
2022/12/16 03:46:25;;;;;;;7.72;4.97;;;;;;;2.63;100.00;97002.75;4983761;28;20038;-63
2022/12/16 03:48:51;;;;;;;7.55;5.00;;;;;;;2.60;100.00;96995.31;4960867;28;20058;-62
2022/12/16 03:51:18;;;;;;;7.55;4.90;;;;;;;2.68;100.00;96998.03;4998200;28;20030;-64
2022/12/16 03:53:44;;;;;;;7.32;4.75;;;;;;;2.82;100.00;97004.50;4979746;28;20077;-62
2022/12/16 03:56:10;;;;;;;8.23;4.45;;;;;;;2.79;100.00;96997.09;4984228;28;20042;-63
2022/12/16 03:58:38;;;;;;;7.97;4.40;;;;;;;2.86;100.00;96994.78;4982852;28;20128;-62
2022/12/16 04:01:04;;;;;;;7.13;4.75;;;;;;;2.80;100.00;96995.31;4983893;28;20360;-63
2022/12/16 04:03:30;;;;;;;7.22;4.53;;;;;;;2.79;100.00;97002.22;4982999;28;20494;-62
2022/12/16 04:05:55;;;;;;;7.25;4.88;;;;;;;2.89;100.00;97005.59;4984814;28;20065;-62
2022/12/16 04:08:20;;;;;;;7.70;5.22;;;;;;;2.90;100.00;97003.81;4983395;28;20031;-63
2022/12/16 04:24:30;;;;;;;6.93;4.57;;;;;;;2.85;100.00;97009.38;4997802;28;20125;-62
2022/12/16 04:32:24;;;;;;;6.95;4.35;;;;;;;2.85;100.00;97008.56;4980867;28;20880;-63
2022/12/16 04:34:51;;;;;;;6.82;4.13;;;;;;;2.86;100.00;97008.41;5015426;28;20042;-63
